Time;durP1;ratioP1;P1;durP2;ratioP2;P2;SDS_P1;SDS_P2;PMS_P1;PMS_P2;Temp;Humidity;BMP_temperature;BMP_pressure;BME280_temperature;BME280_humidity;BME280_pressure;Samples;Min_cycle;Max_cycle;Signal;HPM_P1;HPM_P2
2023/01/02 00:01:58;;;;;;;0.47;0.40;;;8.60;99.90;;;;;;4988491;28;20083;-79
2023/01/02 00:04:25;;;;;;;0.57;0.57;;;8.60;99.90;;;;;;4987329;28;20056;-78
2023/01/02 00:06:52;;;;;;;0.90;0.70;;;8.50;99.90;;;;;;5020814;28;20111;-78
2023/01/02 00:09:19;;;;;;;1.05;0.60;;;8.40;99.90;;;;;;5004102;28;20080;-78
2023/01/02 00:11:46;;;;;;;0.88;0.75;;;8.40;99.90;;;;;;5008956;28;20045;-81
2023/01/02 00:14:13;;;;;;;1.08;0.80;;;8.40;99.90;;;;;;5004014;28;20156;-81
2023/01/02 00:16:40;;;;;;;0.73;0.50;;;8.40;99.90;;;;;;5020042;28;20053;-78
2023/01/02 00:19:07;;;;;;;1.33;0.52;;;8.30;99.90;;;;;;5003726;28;20076;-80
2023/01/02 00:21:34;;;;;;;0.50;0.35;;;8.30;99.90;;;;;;5005687;28;20075;-81
2023/01/02 00:24:01;;;;;;;0.70;0.50;;;8.30;99.90;;;;;;5019235;28;20088;-78
2023/01/02 00:26:31;;;;;;;0.85;0.40;;;8.30;99.90;;;;;;4985330;28;20041;-78
2023/01/02 00:28:59;;;;;;;1.75;0.30;;;8.30;99.90;;;;;;5003537;28;20080;-78
2023/01/02 00:31:26;;;;;;;0.52;0.30;;;8.30;99.90;;;;;;5002353;28;20058;-79
2023/01/02 00:33:52;;;;;;;0.65;0.50;;;8.30;99.90;;;;;;4986659;28;20053;-78
2023/01/02 00:36:19;;;;;;;0.30;0.30;;;8.20;99.90;;;;;;5002498;28;20135;-80
2023/01/02 00:38:46;;;;;;;0.38;0.30;;;8.20;99.90;;;;;;4986769;28;20148;-78
2023/01/02 00:41:13;;;;;;;0.52;0.47;;;8.10;99.90;;;;;;4991350;28;20079;-78
2023/01/02 00:43:39;;;;;;;0.40;0.30;;;8.10;99.90;;;;;;5019242;28;20049;-78
2023/01/02 00:46:06;;;;;;;0.70;0.50;;;8.10;99.90;;;;;;5019754;28;20057;-81
2023/01/02 00:48:38;;;;;;;0.63;0.38;;;8.10;99.90;;;;;;5012371;28;20061;-80
2023/01/02 00:51:05;;;;;;;0.47;0.35;;;8.10;99.90;;;;;;5000642;28;20060;-80
2023/01/02 00:53:31;;;;;;;0.73;0.40;;;8.10;99.90;;;;;;5002836;28;20053;-78
2023/01/02 00:55:58;;;;;;;1.50;0.40;;;8.00;99.90;;;;;;5016520;28;20060;-80
2023/01/02 00:58:25;;;;;;;0.38;0.38;;;8.00;99.90;;;;;;4999427;28;20100;-80
2023/01/02 01:00:52;;;;;;;0.47;0.43;;;8.00;99.90;;;;;;5001494;28;20378;-80
2023/01/02 01:03:18;;;;;;;1.25;0.60;;;8.00;99.90;;;;;;5017549;28;20053;-78
2023/01/02 01:05:45;;;;;;;0.20;0.20;;;8.10;99.90;;;;;;5020218;28;20046;-78
2023/01/02 01:08:12;;;;;;;0.30;0.30;;;8.00;99.90;;;;;;5002595;28;20111;-81
2023/01/02 01:10:39;;;;;;;0.25;0.20;;;8.00;99.90;;;;;;5020457;28;20152;-78
2023/01/02 01:13:06;;;;;;;0.45;0.30;;;8.00;99.90;;;;;;5000092;28;20137;-78
2023/01/02 01:15:33;;;;;;;0.60;0.50;;;7.90;99.90;;;;;;4986459;28;20351;-80
2023/01/02 01:18:00;;;;;;;0.43;0.40;;;7.90;99.90;;;;;;5019452;28;20093;-80
2023/01/02 01:20:27;;;;;;;0.40;0.40;;;7.90;99.90;;;;;;5019939;28;20053;-80
2023/01/02 01:22:53;;;;;;;0.60;0.40;;;8.00;99.90;;;;;;5002353;28;20056;-78
2023/01/02 01:25:20;;;;;;;0.35;0.30;;;7.90;99.90;;;;;;5003099;28;20049;-78
2023/01/02 01:27:47;;;;;;;0.25;0.20;;;7.90;99.90;;;;;;5002835;28;20081;-80
2023/01/02 01:30:14;;;;;;;1.48;0.55;;;7.90;99.90;;;;;;5003455;28;20438;-80
2023/01/02 01:32:41;;;;;;;0.25;0.25;;;7.80;99.90;;;;;;5012150;28;20055;-80
2023/01/02 01:35:08;;;;;;;0.22;0.22;;;7.80;99.90;;;;;;5005183;28;20149;-77
2023/01/02 01:37:37;;;;;;;0.52;0.47;;;7.70;99.90;;;;;;4983303;28;20562;-81
2023/01/02 01:40:05;;;;;;;0.25;0.20;;;7.70;99.90;;;;;;4998354;28;20687;-78
2023/01/02 01:42:32;;;;;;;0.35;0.35;;;7.70;99.90;;;;;;5009792;28;20045;-80
2023/01/02 01:45:05;;;;;;;0.55;0.30;;;7.60;99.90;;;;;;5000883;28;20164;-78
2023/01/02 01:47:38;;;;;;;1.10;0.40;;;7.60;99.90;;;;;;4990623;28;20078;-77
2023/01/02 01:50:14;;;;;;;0.30;0.30;;;7.50;99.90;;;;;;5012733;28;20669;-77
2023/01/02 01:52:55;;;;;;;0.30;0.30;;;7.50;99.90;;;;;;5002301;28;20146;-77
2023/01/02 01:55:30;;;;;;;0.20;0.20;;;7.50;99.90;;;;;;4987644;28;20056;-80
2023/01/02 01:57:58;;;;;;;0.35;0.35;;;7.40;99.90;;;;;;5002561;28;20570;-80
2023/01/02 02:00:25;;;;;;;0.30;0.20;;;7.40;99.90;;;;;;5002262;28;20069;-78
2023/01/02 02:02:56;;;;;;;0.38;0.22;;;7.40;99.90;;;;;;5001788;28;20063;-78
2023/01/02 02:05:25;;;;;;;0.35;0.30;;;7.40;99.90;;;;;;5001881;28;20136;-77
2023/01/02 02:08:20;;;;;;;0.57;0.30;;;7.30;99.90;;;;;;5001570;28;20132;-78
2023/01/02 02:10:47;;;;;;;0.40;0.40;;;7.30;99.90;;;;;;4986595;28;20045;-78
2023/01/02 02:13:14;;;;;;;0.22;0.20;;;7.30;99.90;;;;;;4980962;28;20145;-80
2023/01/02 02:15:59;;;;;;;0.65;0.40;;;7.30;99.90;;;;;;5018316;28;20108;-79
2023/01/02 02:19:04;;;;;;;0.15;0.15;;;7.30;99.90;;;;;;5003167;28;20061;-78
2023/01/02 02:21:54;;;;;;;0.68;0.40;;;7.20;99.90;;;;;;5003609;28;20452;-78
2023/01/02 02:25:02;;;;;;;0.35;0.28;;;7.30;99.90;;;;;;4981673;28;20140;-78
2023/01/02 02:28:02;;;;;;;0.68;0.40;;;7.30;99.90;;;;;;4999242;28;20046;-78
2023/01/02 02:30:36;;;;;;;0.28;0.28;;;7.20;99.90;;;;;;5018699;28;20053;-78
2023/01/02 02:33:06;;;;;;;0.17;0.17;;;7.20;99.90;;;;;;4989431;28;20695;-78
2023/01/02 02:36:00;;;;;;;0.40;0.40;;;7.20;99.90;;;;;;5018998;28;20060;-78
2023/01/02 02:38:36;;;;;;;0.25;0.20;;;7.10;99.90;;;;;;5004145;28;20365;-78
2023/01/02 02:41:08;;;;;;;0.45;0.20;;;7.10;99.90;;;;;;5020481;28;20140;-78
2023/01/02 02:43:45;;;;;;;0.30;0.30;;;7.10;99.90;;;;;;5019444;28;20049;-77
2023/01/02 02:46:29;;;;;;;0.85;0.32;;;7.10;99.90;;;;;;5004025;28;20136;-78
2023/01/02 02:49:06;;;;;;;;;;;7.00;99.90;;;;;;4987778;28;20140;-78
2023/01/02 02:51:44;;;;;;;1.17;0.30;;;7.00;99.90;;;;;;5018417;28;19925;-78
2023/01/02 02:54:14;;;;;;;0.40;0.40;;;7.00;99.90;;;;;;5001992;28;20055;-78
2023/01/02 02:56:41;;;;;;;0.32;0.30;;;7.00;99.90;;;;;;4986766;28;20069;-78
2023/01/02 02:59:08;;;;;;;0.20;0.20;;;7.00;99.90;;;;;;5003071;28;20092;-77
2023/01/02 03:01:35;;;;;;;0.30;0.30;;;6.90;99.90;;;;;;4997387;28;20061;-78
2023/01/02 03:04:04;;;;;;;0.20;0.20;;;6.90;99.90;;;;;;5005882;28;20057;-78
2023/01/02 03:06:52;;;;;;;0.32;0.30;;;6.90;99.90;;;;;;5005750;28;20055;-78
2023/01/02 03:09:37;;;;;;;0.32;0.20;;;6.90;99.90;;;;;;5005191;28;20209;-77
2023/01/02 03:12:29;;;;;;;0.38;0.25;;;6.90;99.90;;;;;;5010447;28;20144;-77
2023/01/02 03:15:06;;;;;;;0.32;0.20;;;6.90;99.90;;;;;;5024112;28;20085;-78
2023/01/02 03:18:03;;;;;;;0.28;0.20;;;6.90;99.90;;;;;;4992135;28;20094;-77
2023/01/02 03:20:37;;;;;;;0.40;0.28;;;6.90;99.90;;;;;;5023192;28;20060;-77
2023/01/02 03:23:07;;;;;;;0.20;0.20;;;6.90;99.90;;;;;;4988939;28;20049;-78
2023/01/02 03:25:34;;;;;;;0.20;0.17;;;6.80;99.90;;;;;;4990753;28;20736;-77
2023/01/02 03:28:01;;;;;;;0.10;0.10;;;6.80;99.90;;;;;;4996579;28;20054;-78
2023/01/02 03:30:28;;;;;;;0.63;0.32;;;6.80;99.90;;;;;;5002353;28;20116;-78
2023/01/02 03:33:03;;;;;;;0.63;0.20;;;6.80;99.90;;;;;;5016600;28;20067;-76
2023/01/02 03:35:40;;;;;;;0.30;0.30;;;6.90;99.90;;;;;;5006629;28;20137;-77
2023/01/02 03:38:10;;;;;;;0.30;0.30;;;6.80;99.90;;;;;;4989188;28;20053;-77
2023/01/02 03:40:47;;;;;;;0.30;0.20;;;6.80;99.90;;;;;;5006835;28;20049;-78
2023/01/02 03:43:18;;;;;;;0.35;0.35;;;6.80;99.90;;;;;;5006401;28;20582;-78
2023/01/02 03:45:48;;;;;;;0.88;0.50;;;6.80;99.90;;;;;;5006666;28;20045;-78
2023/01/02 03:48:30;;;;;;;0.50;0.35;;;6.80;99.90;;;;;;4992582;28;20131;-78
2023/01/02 03:50:58;;;;;;;0.30;0.30;;;6.80;99.90;;;;;;5003220;28;20129;-78
2023/01/02 03:53:24;;;;;;;0.50;0.40;;;6.80;99.90;;;;;;5019302;28;20060;-77
2023/01/02 03:56:17;;;;;;;0.40;0.30;;;6.80;99.90;;;;;;5005978;28;20068;-77
2023/01/02 03:58:46;;;;;;;0.30;0.30;;;6.80;99.90;;;;;;5022414;28;20107;-77
2023/01/02 04:01:45;;;;;;;0.30;0.30;;;6.80;99.90;;;;;;5020421;28;20467;-78
2023/01/02 04:04:20;;;;;;;0.35;0.30;;;6.80;99.90;;;;;;5018718;28;20075;-78
2023/01/02 04:06:50;;;;;;;0.45;0.45;;;6.80;99.90;;;;;;5005436;28;20092;-79
2023/01/02 04:09:19;;;;;;;0.90;0.40;;;6.80;99.90;;;;;;5015932;28;20509;-78
2023/01/02 04:11:49;;;;;;;0.63;0.40;;;6.80;99.90;;;;;;5002406;28;20045;-77
2023/01/02 04:14:19;;;;;;;0.65;0.45;;;6.80;99.90;;;;;;5021775;28;20115;-78
2023/01/02 04:16:45;;;;;;;1.20;0.35;;;6.90;99.90;;;;;;4988612;28;20140;-78
2023/01/02 04:19:20;;;;;;;0.47;0.28;;;6.90;99.90;;;;;;4988112;28;20076;-78
2023/01/02 04:21:46;;;;;;;0.80;0.40;;;6.90;99.90;;;;;;5005221;28;20077;-77
2023/01/02 04:24:18;;;;;;;0.30;0.30;;;7.00;99.90;;;;;;5005685;28;20057;-78
2023/01/02 04:26:48;;;;;;;0.55;0.45;;;7.00;99.90;;;;;;5005438;28;20053;-77
2023/01/02 04:29:15;;;;;;;0.68;0.30;;;7.00;99.90;;;;;;5003762;28;20046;-77
2023/01/02 04:31:46;;;;;;;0.30;0.30;;;7.00;99.90;;;;;;4988241;28;20787;-78
2023/01/02 04:34:14;;;;;;;0.75;0.30;;;7.00;99.90;;;;;;5010010;28;20056;-78
2023/01/02 04:36:41;;;;;;;0.20;0.20;;;7.10;99.90;;;;;;4988477;28;20046;-77
2023/01/02 04:39:08;;;;;;;0.65;0.38;;;7.10;99.90;;;;;;4988864;28;20647;-77
2023/01/02 04:41:36;;;;;;;0.80;0.32;;;7.10;99.90;;;;;;5004991;28;20050;-77
2023/01/02 04:44:03;;;;;;;0.52;0.30;;;7.20;99.90;;;;;;5003850;28;20056;-78
2023/01/02 04:46:30;;;;;;;0.40;0.35;;;7.20;99.90;;;;;;5007718;28;20128;-78
2023/01/02 04:48:57;;;;;;;1.00;0.30;;;7.20;99.90;;;;;;5007499;28;20057;-76
2023/01/02 04:51:24;;;;;;;0.65;0.40;;;7.30;99.90;;;;;;5025396;28;20081;-78
2023/01/02 04:53:51;;;;;;;0.35;0.35;;;7.30;99.90;;;;;;4991598;28;20195;-77
2023/01/02 04:56:18;;;;;;;0.85;0.55;;;7.30;99.90;;;;;;5024417;28;20428;-78
2023/01/02 04:58:45;;;;;;;0.40;0.30;;;7.40;99.90;;;;;;5024945;28;20056;-78
2023/01/02 05:01:13;;;;;;;0.30;0.30;;;7.40;99.90;;;;;;4975503;28;20104;-78
2023/01/02 05:03:41;;;;;;;1.42;0.40;;;7.40;99.90;;;;;;4991401;28;20049;-78
2023/01/02 05:06:08;;;;;;;0.43;0.32;;;7.40;99.90;;;;;;4992047;28;20447;-78
2023/01/02 05:08:35;;;;;;;1.20;0.60;;;7.40;99.90;;;;;;5006653;28;20045;-77
2023/01/02 05:11:13;;;;;;;1.17;0.40;;;7.50;99.90;;;;;;5008130;28;20088;-77
2023/01/02 05:13:39;;;;;;;0.47;0.47;;;7.50;99.90;;;;;;5008277;28;20053;-77
2023/01/02 05:16:07;;;;;;;0.32;0.30;;;7.50;99.90;;;;;;4991073;28;20137;-77
2023/01/02 05:18:33;;;;;;;0.35;0.35;;;7.50;99.90;;;;;;4990950;28;20052;-77
2023/01/02 05:23:55;;;;;;;0.32;0.32;;;7.60;99.90;;;;;;5010153;28;20141;-77
2023/01/02 05:26:22;;;;;;;0.30;0.30;;;7.60;99.90;;;;;;5008082;28;20045;-77
2023/01/02 05:28:51;;;;;;;2.78;0.50;;;7.60;99.90;;;;;;5005486;28;20057;-77
2023/01/02 05:31:18;;;;;;;0.65;0.50;;;7.60;99.90;;;;;;4991558;28;20123;-77
2023/01/02 05:33:53;;;;;;;0.50;0.30;;;7.60;99.90;;;;;;5007369;28;20057;-79
2023/01/02 05:36:20;;;;;;;0.50;0.50;;;7.70;99.90;;;;;;5007071;28;20045;-79
2023/01/02 05:38:47;;;;;;;0.47;0.32;;;7.70;99.90;;;;;;5020739;28;20052;-76
2023/01/02 05:41:14;;;;;;;0.90;0.40;;;7.70;99.90;;;;;;5004217;28;20572;-77
2023/01/02 05:43:41;;;;;;;0.50;0.40;;;7.70;99.90;;;;;;5016032;28;20177;-78
2023/01/02 05:46:17;;;;;;;0.68;0.40;;;7.80;99.90;;;;;;5007582;28;20117;-78
2023/01/02 05:48:44;;;;;;;0.43;0.30;;;7.80;99.90;;;;;;5017830;28;20057;-76
2023/01/02 05:51:12;;;;;;;0.73;0.30;;;7.80;99.90;;;;;;5003098;28;20141;-78
2023/01/02 05:53:39;;;;;;;0.40;0.30;;;7.80;99.90;;;;;;5004822;28;20084;-77
2023/01/02 05:56:13;;;;;;;0.30;0.30;;;7.80;99.90;;;;;;5022237;28;20059;-78
2023/01/02 05:58:41;;;;;;;0.63;0.30;;;7.80;99.90;;;;;;4982616;28;20606;-77
2023/01/02 06:01:12;;;;;;;1.35;0.85;;;7.80;99.90;;;;;;5005729;28;20088;-77
2023/01/02 06:03:39;;;;;;;0.22;0.20;;;7.80;99.90;;;;;;4990141;28;20108;-77
2023/01/02 06:06:07;;;;;;;0.30;0.30;;;7.80;99.90;;;;;;5004310;28;20045;-77
2023/01/02 06:08:34;;;;;;;0.20;0.20;;;7.80;99.90;;;;;;5016460;28;20152;-78
2023/01/02 06:11:01;;;;;;;0.47;0.38;;;7.80;99.90;;;;;;5002076;28;20052;-77
2023/01/02 06:13:28;;;;;;;1.15;0.40;;;7.80;99.90;;;;;;5017904;28;20063;-77
2023/01/02 06:15:56;;;;;;;1.13;0.22;;;7.80;99.90;;;;;;4985195;28;20546;-78
2023/01/02 06:18:23;;;;;;;0.40;0.40;;;7.90;99.90;;;;;;4986655;28;20068;-78
2023/01/02 06:20:50;;;;;;;0.38;0.25;;;7.90;99.90;;;;;;4989647;28;20362;-78
2023/01/02 06:23:17;;;;;;;0.80;0.43;;;7.90;99.90;;;;;;4986169;28;20246;-78
2023/01/02 06:25:44;;;;;;;0.45;0.38;;;8.00;99.90;;;;;;4985760;28;20071;-78
2023/01/02 06:28:10;;;;;;;1.05;0.70;;;8.00;99.90;;;;;;4977928;28;20112;-77
2023/01/02 06:30:37;;;;;;;2.35;0.90;;;8.00;99.90;;;;;;5013704;28;20132;-77
2023/01/02 06:33:04;;;;;;;0.50;0.32;;;8.10;99.90;;;;;;5016627;28;20136;-78
2023/01/02 06:35:31;;;;;;;1.42;0.55;;;8.10;99.90;;;;;;5019714;28;20072;-77
2023/01/02 06:37:58;;;;;;;0.52;0.47;;;8.10;99.90;;;;;;4969061;28;20169;-77
2023/01/02 06:40:25;;;;;;;0.43;0.40;;;8.20;99.90;;;;;;5023497;28;20059;-77
2023/01/02 06:42:52;;;;;;;0.93;0.40;;;8.20;99.90;;;;;;5021073;28;20088;-78
2023/01/02 06:45:25;;;;;;;1.30;0.40;;;8.20;99.90;;;;;;5016703;28;20059;-78
2023/01/02 06:47:59;;;;;;;0.73;0.50;;;8.20;99.90;;;;;;5015920;28;20049;-77
2023/01/02 06:50:26;;;;;;;0.43;0.30;;;8.20;99.90;;;;;;5008464;28;20049;-77
2023/01/02 06:53:00;;;;;;;0.35;0.35;;;8.20;99.90;;;;;;4981382;28;20052;-77
2023/01/02 06:55:27;;;;;;;0.40;0.40;;;8.30;99.90;;;;;;5003659;28;20153;-77
2023/01/02 06:57:54;;;;;;;0.20;0.20;;;8.30;99.90;;;;;;5012331;28;20115;-77
2023/01/02 07:00:21;;;;;;;0.75;0.50;;;8.30;99.90;;;;;;5002881;28;20052;-77
2023/01/02 07:02:47;;;;;;;0.65;0.32;;;8.30;99.90;;;;;;5000204;28;20084;-77
2023/01/02 07:05:14;;;;;;;0.55;0.35;;;8.30;99.90;;;;;;4992057;28;20125;-77
2023/01/02 07:07:49;;;;;;;0.70;0.40;;;8.30;99.90;;;;;;5013830;28;20048;-78
2023/01/02 07:10:16;;;;;;;0.32;0.30;;;8.20;99.90;;;;;;4985107;28;20088;-77
2023/01/02 07:12:43;;;;;;;0.80;0.30;;;8.20;99.90;;;;;;5005255;28;20088;-77
2023/01/02 07:15:10;;;;;;;1.17;0.50;;;8.20;99.90;;;;;;4985956;28;20212;-77
2023/01/02 07:17:37;;;;;;;0.30;0.30;;;8.10;99.90;;;;;;5018170;28;20519;-77
2023/01/02 07:20:04;;;;;;;0.45;0.35;;;8.00;99.90;;;;;;5016863;28;20136;-77
2023/01/02 07:22:30;;;;;;;0.43;0.40;;;8.00;99.90;;;;;;5017502;28;20057;-80
2023/01/02 07:24:57;;;;;;;1.33;0.55;;;7.90;99.90;;;;;;5001262;28;20055;-79
2023/01/02 07:27:24;;;;;;;0.40;0.40;;;7.80;99.90;;;;;;5016947;28;20060;-79
2023/01/02 07:29:50;;;;;;;1.15;0.55;;;7.80;99.90;;;;;;5019056;28;20076;-79
2023/01/02 07:32:17;;;;;;;0.30;0.25;;;7.70;99.90;;;;;;5000557;28;20061;-79
2023/01/02 07:34:52;;;;;;;0.30;0.30;;;7.70;99.90;;;;;;5019359;28;20069;-82
2023/01/02 07:37:19;;;;;;;0.65;0.40;;;7.70;99.90;;;;;;5018541;28;20076;-83
2023/01/02 07:39:46;;;;;;;0.45;0.38;;;7.60;99.90;;;;;;5018304;28;20061;-81
2023/01/02 07:42:12;;;;;;;0.68;0.45;;;7.60;99.90;;;;;;5007375;28;20056;-83
2023/01/02 07:44:39;;;;;;;0.52;0.30;;;7.60;99.90;;;;;;5010921;28;20552;-82
2023/01/02 07:47:06;;;;;;;0.50;0.40;;;7.60;99.90;;;;;;5012211;28;20362;-83
2023/01/02 07:49:32;;;;;;;0.28;0.25;;;7.60;99.90;;;;;;5011956;28;20088;-79
2023/01/02 07:51:59;;;;;;;0.20;0.20;;;7.50;99.90;;;;;;5012870;28;20052;-82
2023/01/02 07:54:26;;;;;;;0.52;0.30;;;7.50;99.90;;;;;;5016675;28;20060;-79
2023/01/02 07:56:52;;;;;;;0.65;0.30;;;7.50;99.90;;;;;;5014039;28;20136;-82
2023/01/02 07:59:19;;;;;;;0.75;0.40;;;7.40;99.90;;;;;;5010199;28;20048;-81
2023/01/02 08:01:46;;;;;;;0.40;0.40;;;7.40;99.90;;;;;;5013449;28;20183;-81
2023/01/02 08:04:13;;;;;;;0.43;0.30;;;7.30;99.90;;;;;;5008359;28;20520;-80
2023/01/02 08:06:40;;;;;;;0.28;0.20;;;7.30;99.90;;;;;;5004923;28;20050;-81
2023/01/02 08:09:07;;;;;;;0.38;0.30;;;7.30;99.90;;;;;;5006130;28;20267;-81
2023/01/02 08:11:34;;;;;;;0.30;0.30;;;7.20;99.90;;;;;;5006294;28;20117;-80
2023/01/02 08:14:00;;;;;;;0.20;0.20;;;7.20;99.90;;;;;;5003073;28;20069;-80
2023/01/02 08:16:27;;;;;;;0.30;0.30;;;7.20;99.90;;;;;;5003724;28;20294;-81
2023/01/02 08:18:54;;;;;;;0.28;0.28;;;7.10;99.90;;;;;;5002385;28;20073;-81
2023/01/02 08:21:24;;;;;;;0.20;0.20;;;7.10;99.90;;;;;;5005651;28;20108;-80
2023/01/02 08:23:51;;;;;;;2.67;0.40;;;7.10;99.90;;;;;;5008093;28;20091;-80
2023/01/02 08:26:19;;;;;;;0.47;0.40;;;7.10;99.90;;;;;;5011040;28;20136;-81
2023/01/02 08:28:46;;;;;;;0.20;0.20;;;7.10;99.90;;;;;;4992444;28;20117;-81
2023/01/02 08:31:17;;;;;;;0.32;0.32;;;7.00;99.90;;;;;;5004252;28;20085;-81
2023/01/02 08:33:44;;;;;;;0.30;0.30;;;7.00;99.90;;;;;;5003623;28;20103;-81
2023/01/02 08:36:11;;;;;;;0.35;0.35;;;7.00;99.90;;;;;;5006839;28;20125;-81
2023/01/02 08:38:38;;;;;;;0.28;0.25;;;7.00;99.90;;;;;;4999823;28;20115;-81
2023/01/02 08:41:04;;;;;;;0.28;0.20;;;7.10;99.90;;;;;;5014980;28;20278;-81
2023/01/02 08:43:34;;;;;;;1.20;0.60;;;7.10;99.90;;;;;;4989707;28;20052;-81
2023/01/02 08:46:05;;;;;;;0.30;0.30;;;7.10;99.90;;;;;;5012279;28;20061;-80
2023/01/02 08:48:32;;;;;;;0.30;0.30;;;7.10;99.90;;;;;;5012615;28;20091;-80
2023/01/02 08:50:59;;;;;;;0.28;0.20;;;7.10;99.90;;;;;;4993937;28;20094;-80
2023/01/02 08:53:26;;;;;;;0.52;0.30;;;7.10;99.90;;;;;;5012198;28;20149;-80
2023/01/02 08:55:52;;;;;;;0.55;0.32;;;7.00;99.90;;;;;;5015830;28;20469;-80
2023/01/02 08:58:19;;;;;;;0.20;0.20;;;7.10;99.90;;;;;;5012408;28;20136;-80
2023/01/02 09:00:46;;;;;;;0.40;0.22;;;7.10;99.90;;;;;;5014663;28;20071;-79
2023/01/02 09:03:12;;;;;;;1.33;0.75;;;7.10;99.90;;;;;;5014346;28;20701;-80
2023/01/02 09:05:39;;;;;;;0.35;0.20;;;7.10;99.90;;;;;;5014661;28;20053;-80
2023/01/02 09:08:06;;;;;;;0.60;0.40;;;7.10;99.90;;;;;;5005426;28;20045;-79
2023/01/02 09:10:33;;;;;;;0.50;0.30;;;7.10;99.90;;;;;;5006640;28;20777;-80
2023/01/02 09:13:00;;;;;;;0.38;0.22;;;7.10;99.90;;;;;;5006374;28;20042;-80
2023/01/02 09:15:26;;;;;;;1.00;0.40;;;7.10;99.90;;;;;;5005942;28;20069;-79
2023/01/02 09:17:53;;;;;;;0.30;0.30;;;7.20;99.90;;;;;;5004250;28;20049;-77
2023/01/02 09:20:21;;;;;;;0.38;0.38;;;7.20;99.90;;;;;;4970464;28;20066;-78
2023/01/02 09:22:51;;;;;;;0.63;0.30;;;7.20;99.90;;;;;;5005928;28;20064;-80
2023/01/02 09:25:18;;;;;;;0.38;0.20;;;7.20;99.90;;;;;;5000231;28;20277;-80
2023/01/02 09:27:50;;;;;;;0.60;0.30;;;7.20;99.90;;;;;;5006848;28;20365;-80
2023/01/02 09:30:17;;;;;;;0.30;0.30;;;7.20;99.90;;;;;;5020889;28;20053;-80
2023/01/02 09:32:44;;;;;;;0.28;0.28;;;7.30;99.90;;;;;;4987492;28;20050;-81
2023/01/02 09:35:11;;;;;;;0.20;0.20;;;7.30;99.90;;;;;;4974885;28;20524;-81
2023/01/02 09:37:38;;;;;;;0.20;0.20;;;7.30;99.90;;;;;;5008022;28;20045;-81
2023/01/02 09:40:05;;;;;;;1.30;0.40;;;7.30;99.90;;;;;;5008800;28;20108;-81
2023/01/02 09:42:32;;;;;;;0.77;0.30;;;7.40;99.90;;;;;;5006017;28;20049;-78
2023/01/02 09:45:01;;;;;;;0.55;0.40;;;7.50;99.90;;;;;;5003925;28;20377;-78
2023/01/02 09:47:34;;;;;;;0.55;0.40;;;7.50;99.90;;;;;;5001963;28;20332;-79
2023/01/02 09:50:05;;;;;;;1.92;0.40;;;7.60;99.90;;;;;;5012024;28;20303;-77
2023/01/02 09:52:34;;;;;;;0.85;0.50;;;7.70;99.90;;;;;;4997042;28;20103;-79
2023/01/02 09:55:01;;;;;;;2.30;0.80;;;7.80;99.90;;;;;;5010077;28;20130;-79
2023/01/02 09:57:27;;;;;;;3.33;0.80;;;7.90;99.90;;;;;;5013727;28;20087;-79
2023/01/02 10:00:08;;;;;;;2.03;1.00;;;8.00;99.90;;;;;;5016050;28;20409;-79
2023/01/02 10:02:56;;;;;;;2.13;1.00;;;8.00;99.90;;;;;;5008896;28;20049;-83
2023/01/02 10:05:45;;;;;;;0.90;0.68;;;8.20;99.90;;;;;;5016357;28;20132;-77
2023/01/02 10:08:37;;;;;;;1.63;1.25;;;8.30;99.90;;;;;;5012944;28;20481;-79
2023/01/02 10:11:06;;;;;;;2.72;1.05;;;8.30;99.90;;;;;;5008189;28;20065;-81
2023/01/02 10:13:41;;;;;;;2.58;1.23;;;8.40;99.90;;;;;;5011105;28;20053;-80
2023/01/02 10:16:30;;;;;;;1.10;0.80;;;8.40;99.90;;;;;;5011253;28;20046;-79
2023/01/02 10:18:59;;;;;;;3.30;0.82;;;8.40;99.90;;;;;;5001579;28;20049;-79
2023/01/02 10:21:28;;;;;;;2.50;1.23;;;8.40;99.90;;;;;;4989107;28;20320;-79
2023/01/02 10:24:37;;;;;;;2.00;0.90;;;8.40;99.90;;;;;;5013458;28;20052;-79
2023/01/02 10:27:04;;;;;;;1.98;0.90;;;8.40;99.90;;;;;;4976488;28;20390;-79
2023/01/02 10:29:35;;;;;;;3.15;1.50;;;8.30;99.90;;;;;;4989783;28;20602;-78
2023/01/02 10:32:05;;;;;;;2.88;0.77;;;8.30;99.90;;;;;;5016743;28;20053;-78
2023/01/02 10:34:47;;;;;;;2.50;0.90;;;8.20;99.90;;;;;;4996827;28;20045;-78
2023/01/02 10:37:15;;;;;;;2.05;1.00;;;8.20;99.90;;;;;;5011377;28;20045;-77
2023/01/02 10:39:42;;;;;;;3.05;1.02;;;8.20;99.90;;;;;;4995501;28;20059;-78
2023/01/02 10:42:13;;;;;;;2.10;1.10;;;8.20;99.90;;;;;;4998099;28;20301;-78
2023/01/02 10:44:40;;;;;;;1.42;0.80;;;8.20;99.90;;;;;;4983513;28;20374;-78
2023/01/02 10:47:30;;;;;;;2.75;0.85;;;8.30;99.90;;;;;;5017181;28;20075;-79
2023/01/02 10:49:57;;;;;;;2.03;1.00;;;8.30;99.90;;;;;;5017105;28;20499;-79
2023/01/02 10:52:49;;;;;;;1.58;0.90;;;8.40;99.90;;;;;;5015200;28;20050;-79
2023/01/02 10:55:30;;;;;;;1.67;0.70;;;8.40;99.90;;;;;;5007417;28;20482;-78
2023/01/02 10:58:10;;;;;;;2.90;1.00;;;8.50;99.90;;;;;;4998546;28;20046;-78
2023/01/02 11:00:37;;;;;;;1.50;0.73;;;8.50;99.90;;;;;;4989802;28;20530;-78
2023/01/02 11:03:11;;;;;;;1.75;1.02;;;8.60;99.90;;;;;;4995983;28;20045;-78
2023/01/02 11:05:44;;;;;;;1.10;0.82;;;8.60;99.90;;;;;;5002211;28;20050;-78
2023/01/02 11:08:13;;;;;;;2.47;1.08;;;8.80;99.90;;;;;;5016301;28;20056;-78
2023/01/02 11:10:40;;;;;;;0.95;0.73;;;8.80;99.90;;;;;;5019088;28;20523;-79
2023/01/02 11:13:15;;;;;;;1.67;0.95;;;8.90;99.90;;;;;;5016527;28;20548;-78
2023/01/02 11:15:55;;;;;;;2.22;1.00;;;8.90;99.90;;;;;;5016568;28;20115;-78
2023/01/02 11:18:33;;;;;;;2.05;1.20;;;9.00;99.90;;;;;;4998735;28;20336;-78
2023/01/02 11:21:04;;;;;;;1.23;0.85;;;9.00;99.90;;;;;;4999545;28;20053;-79
2023/01/02 11:23:39;;;;;;;2.10;1.17;;;9.00;99.90;;;;;;4999620;28;20396;-78
2023/01/02 11:26:12;;;;;;;1.77;1.10;;;8.90;99.90;;;;;;5014945;28;20481;-77
2023/01/02 11:28:38;;;;;;;1.85;1.20;;;8.90;99.90;;;;;;4993435;28;20146;-78
2023/01/02 11:31:07;;;;;;;1.95;0.90;;;8.80;99.90;;;;;;5010897;28;20059;-77
2023/01/02 11:33:35;;;;;;;2.40;1.20;;;8.70;99.90;;;;;;4990762;28;20125;-78
2023/01/02 11:36:14;;;;;;;2.35;1.27;;;8.70;99.90;;;;;;5009807;28;20044;-78
2023/01/02 11:38:42;;;;;;;2.35;1.27;;;8.60;99.90;;;;;;5005345;28;20108;-78
2023/01/02 11:44:24;;;;;;;2.40;1.25;;;8.50;99.90;;;;;;5010917;28;20212;-78
2023/01/02 11:46:51;;;;;;;0.88;0.73;;;8.60;99.90;;;;;;5005274;28;20045;-78
2023/01/02 11:49:33;;;;;;;1.25;1.00;;;8.60;99.90;;;;;;5009072;28;20353;-78
2023/01/02 11:52:03;;;;;;;2.55;1.10;;;8.60;99.90;;;;;;4987377;28;20049;-77
2023/01/02 11:55:21;;;;;;;2.30;1.20;;;8.60;99.90;;;;;;5006256;28;20535;-77
2023/01/02 11:57:53;;;;;;;1.50;0.98;;;8.60;99.90;;;;;;4986567;28;20168;-79
2023/01/02 12:00:20;;;;;;;2.28;0.77;;;8.60;99.90;;;;;;4975045;28;20188;-80
2023/01/02 12:02:48;;;;;;;3.55;1.02;;;8.60;99.90;;;;;;5005670;28;20089;-81
2023/01/02 12:05:31;;;;;;;1.83;1.25;;;8.60;99.90;;;;;;5012283;28;20153;-78
2023/01/02 12:08:03;;;;;;;1.48;1.10;;;8.60;99.90;;;;;;5013704;28;20225;-78
2023/01/02 12:10:45;;;;;;;1.42;0.95;;;8.70;99.90;;;;;;4981750;28;20064;-81
2023/01/02 12:13:34;;;;;;;1.52;1.00;;;8.70;99.90;;;;;;5014469;28;20242;-78
2023/01/02 12:16:06;;;;;;;1.83;1.10;;;8.70;99.90;;;;;;5012775;28;20060;-78
2023/01/02 12:18:53;;;;;;;3.70;1.35;;;8.90;99.90;;;;;;4997012;28;20041;-78
2023/01/02 12:21:40;;;;;;;1.27;0.98;;;9.00;99.90;;;;;;4995754;28;20049;-76
2023/01/02 12:24:12;;;;;;;1.95;0.98;;;9.20;99.90;;;;;;5015679;28;20582;-76
2023/01/02 12:27:06;;;;;;;1.88;1.08;;;9.30;99.90;;;;;;5009704;28;20049;-81
2023/01/02 12:29:48;;;;;;;1.58;1.20;;;9.40;99.90;;;;;;4999728;28;20065;-80
2023/01/02 12:32:25;;;;;;;1.67;1.00;;;9.60;99.90;;;;;;5011338;28;20162;-80
2023/01/02 12:35:34;;;;;;;1.85;1.00;;;9.80;99.90;;;;;;5012961;28;20064;-79
2023/01/02 12:38:04;;;;;;;0.98;0.90;;;10.00;99.90;;;;;;5013222;28;20143;-80
2023/01/02 12:41:05;;;;;;;2.03;0.88;;;10.20;99.90;;;;;;5009953;28;20826;-81
2023/01/02 12:43:44;;;;;;;1.17;0.88;;;10.30;99.90;;;;;;5014919;28;20153;-80
2023/01/02 12:46:14;;;;;;;2.10;1.08;;;10.30;99.90;;;;;;5012423;28;20049;-78
2023/01/02 12:49:02;;;;;;;1.38;1.10;;;10.20;99.90;;;;;;4998551;28;20058;-80
2023/01/02 12:51:41;;;;;;;2.22;1.20;;;10.10;99.90;;;;;;5013630;28;20137;-80
2023/01/02 12:54:17;;;;;;;1.02;0.90;;;9.90;99.90;;;;;;4995120;28;20428;-80
2023/01/02 12:57:08;;;;;;;1.80;1.08;;;9.90;99.90;;;;;;5004642;28;20049;-79
2023/01/02 12:59:44;;;;;;;3.45;1.23;;;9.80;99.90;;;;;;4981667;28;20153;-79
2023/01/02 13:02:39;;;;;;;1.63;1.13;;;9.70;99.90;;;;;;5011547;28;20145;-80
2023/01/02 13:05:15;;;;;;;1.38;1.08;;;9.60;99.90;;;;;;4987507;28;20061;-79
2023/01/02 13:07:54;;;;;;;1.00;0.80;;;9.50;99.90;;;;;;5001730;28;20128;-78
2023/01/02 13:10:23;;;;;;;1.63;1.00;;;9.50;99.90;;;;;;5006605;28;20079;-80
2023/01/02 13:12:50;;;;;;;2.17;1.15;;;9.50;99.90;;;;;;4992324;28;20488;-79
2023/01/02 13:15:24;;;;;;;1.55;1.00;;;9.50;99.90;;;;;;4995626;28;20057;-78
2023/01/02 13:18:20;;;;;;;1.80;1.20;;;9.50;99.90;;;;;;4998959;28;20244;-79
2023/01/02 13:20:58;;;;;;;2.08;1.15;;;9.50;99.90;;;;;;5010848;28;20446;-78
2023/01/02 13:23:31;;;;;;;3.88;1.30;;;9.40;99.90;;;;;;5007075;28;20556;-78
2023/01/02 13:26:08;;;;;;;1.50;1.20;;;9.30;99.90;;;;;;4994241;28;20140;-78
2023/01/02 13:28:42;;;;;;;1.33;1.10;;;9.30;99.90;;;;;;5010131;28;20137;-78